createdAt,value
2023-02-03T00:00:32.028Z,18.80
2023-02-03T00:03:00.510Z,18.60
2023-02-03T00:05:29.805Z,21.23
2023-02-03T00:07:58.879Z,20.83
2023-02-03T00:10:28.903Z,23.00
2023-02-03T00:12:58.012Z,20.97
2023-02-03T00:15:27.034Z,19.93
2023-02-03T00:17:55.509Z,24.33
2023-02-03T00:20:24.869Z,20.43
2023-02-03T00:22:53.679Z,19.80
2023-02-03T00:25:22.651Z,21.13
2023-02-03T00:27:52.559Z,22.67
2023-02-03T00:30:21.233Z,21.77
2023-02-03T00:32:49.753Z,21.90
2023-02-03T00:35:18.347Z,20.00
2023-02-03T00:37:53.460Z,19.23
2023-02-03T00:40:30.015Z,19.97
2023-02-03T00:42:59.975Z,18.43
2023-02-03T00:45:34.998Z,17.93
2023-02-03T00:48:03.469Z,16.77
2023-02-03T00:50:32.110Z,17.17
2023-02-03T00:53:00.583Z,15.80
2023-02-03T00:55:29.250Z,13.33
2023-02-03T00:57:57.690Z,14.43
2023-02-03T01:00:28.041Z,17.23
2023-02-03T01:02:56.835Z,15.47
2023-02-03T01:05:25.487Z,16.47
2023-02-03T01:07:53.951Z,15.70
2023-02-03T01:10:22.424Z,15.00
2023-02-03T01:12:50.911Z,15.87
2023-02-03T01:15:19.682Z,13.90
2023-02-03T01:17:49.616Z,15.40
2023-02-03T01:20:18.275Z,15.20
2023-02-03T01:22:46.776Z,14.37
2023-02-03T01:25:15.289Z,14.30
2023-02-03T01:27:43.867Z,13.37
2023-02-03T01:30:13.540Z,17.17
2023-02-03T01:32:41.993Z,13.03
2023-02-03T01:35:12.046Z,13.23
2023-02-03T01:37:40.544Z,11.77
2023-02-03T01:40:10.646Z,11.37
2023-02-03T01:42:51.177Z,13.30
2023-02-03T01:45:25.989Z,12.27
2023-02-03T01:48:01.353Z,16.13
2023-02-03T01:50:34.414Z,14.20
2023-02-03T01:53:06.495Z,15.77
2023-02-03T01:55:38.675Z,19.00
2023-02-03T01:58:12.869Z,17.77
2023-02-03T02:00:42.421Z,19.43
2023-02-03T02:03:11.709Z,21.23
2023-02-03T02:05:48.171Z,21.57
2023-02-03T02:08:19.612Z,18.93
2023-02-03T02:10:48.270Z,20.73
2023-02-03T02:13:18.960Z,24.13
2023-02-03T02:15:55.952Z,25.57
2023-02-03T02:18:42.113Z,28.37
2023-02-03T02:21:55.672Z,26.60
2023-02-03T02:24:56.137Z,21.70
2023-02-03T02:27:44.858Z,25.03
2023-02-03T02:30:34.586Z,24.03
2023-02-03T02:33:17.001Z,25.77
2023-02-03T02:35:57.337Z,27.57
2023-02-03T02:38:39.623Z,25.57
2023-02-03T02:41:17.208Z,30.20
2023-02-03T02:43:50.991Z,26.33
2023-02-03T02:46:25.904Z,22.03
2023-02-03T02:49:00.981Z,18.00
2023-02-03T02:51:31.632Z,18.15
2023-02-03T02:54:04.929Z,56.17
2023-02-03T02:56:36.228Z,23.47
2023-02-03T02:59:06.233Z,22.33
2023-02-03T03:01:34.862Z,24.97
2023-02-03T03:04:08.946Z,23.17
2023-02-03T03:06:41.321Z,19.43
2023-02-03T03:09:13.465Z,22.77
2023-02-03T03:11:46.465Z,16.97
2023-02-03T03:14:19.073Z,15.97
2023-02-03T03:16:51.776Z,16.63
2023-02-03T03:19:25.688Z,14.67
2023-02-03T03:21:57.254Z,14.63
2023-02-03T03:24:29.356Z,13.33
2023-02-03T03:27:06.058Z,13.33
2023-02-03T03:29:41.114Z,14.37
2023-02-03T03:32:10.108Z,13.33
2023-02-03T03:34:40.556Z,13.43
2023-02-03T03:37:14.576Z,14.77
2023-02-03T03:39:48.047Z,13.07
2023-02-03T03:42:22.014Z,11.83
2023-02-03T03:44:55.400Z,13.57
2023-02-03T03:47:30.784Z,14.27
2023-02-03T03:50:02.916Z,16.37
2023-02-03T03:52:36.129Z,16.30
2023-02-03T03:55:06.690Z,15.30
2023-02-03T03:57:39.049Z,17.20
2023-02-03T04:00:10.913Z,18.33
2023-02-03T04:02:42.237Z,18.23
2023-02-03T04:05:13.328Z,16.17
2023-02-03T04:07:44.068Z,18.10
2023-02-03T04:10:22.264Z,15.83
2023-02-03T04:12:50.845Z,17.50
2023-02-03T04:15:19.624Z,15.97
2023-02-03T04:17:48.093Z,17.13
2023-02-03T04:20:18.463Z,15.73
2023-02-03T04:22:47.009Z,14.33
2023-02-03T04:25:15.693Z,15.03
2023-02-03T04:27:44.319Z,15.13
2023-02-03T04:30:14.056Z,14.10
2023-02-03T04:32:42.910Z,16.77
2023-02-03T04:35:11.446Z,17.37
2023-02-03T04:37:41.522Z,16.50
2023-02-03T04:40:12.394Z,15.30
2023-02-03T04:42:41.473Z,18.00
2023-02-03T04:45:12.117Z,18.20
2023-02-03T04:47:41.005Z,19.30
2023-02-03T04:50:10.436Z,17.13
2023-02-03T04:52:40.388Z,16.50
2023-02-03T04:55:09.790Z,15.67
2023-02-03T04:57:38.268Z,15.03
2023-02-03T05:00:07.944Z,18.47
2023-02-03T05:02:36.474Z,23.90
2023-02-03T05:05:05.136Z,19.40
2023-02-03T05:07:33.626Z,19.47
2023-02-03T05:10:03.555Z,17.07
2023-02-03T05:12:32.165Z,18.17
2023-02-03T05:15:00.825Z,17.53
2023-02-03T05:17:29.292Z,13.68
2023-02-03T05:19:57.781Z,31.90
2023-02-03T05:22:26.346Z,26.80
2023-02-03T05:24:54.819Z,13.93
2023-02-03T05:27:24.729Z,20.70
2023-02-03T05:29:53.237Z,25.13
2023-02-03T05:32:21.933Z,19.47
2023-02-03T05:34:50.972Z,17.73
2023-02-03T05:37:19.558Z,16.67
2023-02-03T05:39:47.985Z,17.50
2023-02-03T05:42:15.514Z,19.97
2023-02-03T05:44:45.409Z,23.60
2023-02-03T05:47:13.961Z,25.43
2023-02-03T05:49:42.447Z,25.47
2023-02-03T05:52:10.926Z,27.10
2023-02-03T05:54:39.876Z,23.57
2023-02-03T05:57:08.408Z,23.83
2023-02-03T05:59:36.996Z,20.60
2023-02-03T06:02:07.170Z,23.33
2023-02-03T06:04:35.776Z,24.13
2023-02-03T06:07:04.344Z,24.30
2023-02-03T06:09:32.853Z,22.07
2023-02-03T06:12:01.442Z,22.77
2023-02-03T06:14:29.935Z,22.07
2023-02-03T06:16:58.582Z,19.60
2023-02-03T06:19:28.524Z,22.93
2023-02-03T06:21:57.080Z,21.33
2023-02-03T06:24:25.835Z,23.30
2023-02-03T06:26:54.453Z,24.03
2023-02-03T06:29:23.016Z,24.63
2023-02-03T06:31:51.736Z,21.53
2023-02-03T06:34:20.388Z,21.77
2023-02-03T06:36:50.539Z,23.20
2023-02-03T06:39:19.159Z,23.57
2023-02-03T06:41:47.715Z,25.03
2023-02-03T06:44:16.292Z,26.17
2023-02-03T06:46:44.835Z,29.03
2023-02-03T06:49:13.395Z,32.60
2023-02-03T06:51:41.979Z,28.20
2023-02-03T06:54:12.476Z,27.67
2023-02-03T06:56:41.780Z,32.83
2023-02-03T06:59:11.428Z,46.10
2023-02-03T07:01:40.480Z,56.83
2023-02-03T07:04:10.325Z,67.10
2023-02-03T07:06:38.787Z,76.17
2023-02-03T07:09:08.283Z,76.33
2023-02-03T07:11:38.330Z,42.00
2023-02-03T07:14:06.831Z,26.30
2023-02-03T07:16:38.022Z,23.70
2023-02-03T07:19:07.682Z,23.93
2023-02-03T07:21:36.219Z,23.97
2023-02-03T07:24:04.972Z,24.53
2023-02-03T07:26:33.604Z,23.70
2023-02-03T07:29:04.186Z,24.17
2023-02-03T07:31:33.102Z,25.47
2023-02-03T07:34:02.914Z,22.80
2023-02-03T07:36:31.547Z,21.00
2023-02-03T07:39:00.365Z,20.80
2023-02-03T07:41:28.920Z,21.97
2023-02-03T07:43:57.467Z,21.23
2023-02-03T07:46:27.413Z,18.80
2023-02-03T07:48:56.027Z,17.97
2023-02-03T07:51:24.526Z,18.97
2023-02-03T07:53:53.045Z,20.67
2023-02-03T07:56:21.701Z,20.83
2023-02-03T07:58:53.546Z,22.73
2023-02-03T08:01:22.093Z,20.43
2023-02-03T08:03:54.248Z,23.47
2023-02-03T08:06:23.778Z,21.40
2023-02-03T08:08:54.219Z,23.30
2023-02-03T08:11:22.947Z,25.13
2023-02-03T08:13:51.508Z,22.60
2023-02-03T08:16:20.315Z,21.97
2023-02-03T08:18:48.917Z,30.17
2023-02-03T08:21:18.901Z,34.63
2023-02-03T08:23:47.422Z,32.53
2023-02-03T08:26:16.069Z,26.67
2023-02-03T08:28:44.686Z,28.13
2023-02-03T08:31:14.238Z,27.67
2023-02-03T08:36:30.231Z,9.45
2023-02-03T08:38:58.894Z,37.23
2023-02-03T08:41:27.651Z,71.57
2023-02-03T08:43:56.258Z,61.83
2023-02-03T08:46:24.967Z,50.70
2023-02-03T08:48:56.607Z,63.73
2023-02-03T08:51:25.917Z,54.43
2023-02-03T08:53:55.962Z,40.07
2023-02-03T08:56:26.541Z,39.40
2023-02-03T08:58:56.102Z,40.03
2023-02-03T09:01:24.951Z,40.20
2023-02-03T09:03:53.650Z,42.10
2023-02-03T09:06:24.590Z,39.10
2023-02-03T09:08:56.109Z,31.53
2023-02-03T09:11:25.321Z,47.63
2023-02-03T09:13:59.047Z,43.33
2023-02-03T09:16:28.345Z,20.00
2023-02-03T09:19:00.585Z,22.17
2023-02-03T09:21:37.115Z,20.13
2023-02-03T09:24:13.060Z,19.37
2023-02-03T09:26:46.408Z,24.80
2023-02-03T09:29:15.231Z,26.30
2023-02-03T09:31:44.250Z,26.30
2023-02-03T09:34:12.963Z,26.23
2023-02-03T09:36:43.060Z,49.20
2023-02-03T09:39:13.500Z,36.47
2023-02-03T09:42:08.111Z,35.33
2023-02-03T09:44:46.454Z,42.07
2023-02-03T09:47:19.835Z,27.70
2023-02-03T09:49:52.830Z,32.10
2023-02-03T09:52:24.331Z,22.10
2023-02-03T09:55:00.357Z,28.37
2023-02-03T09:57:31.507Z,32.53
2023-02-03T10:00:03.926Z,33.70
2023-02-03T10:02:45.941Z,36.87
2023-02-03T10:05:24.410Z,28.13
2023-02-03T10:08:04.347Z,33.10
2023-02-03T10:10:41.615Z,39.70
2023-02-03T10:13:23.300Z,28.03
2023-02-03T10:16:06.352Z,26.03
2023-02-03T10:18:41.580Z,28.27
2023-02-03T10:21:17.987Z,26.37
2023-02-03T10:23:48.285Z,32.43
2023-02-03T10:26:21.524Z,27.17
2023-02-03T10:28:55.991Z,25.93
2023-02-03T10:31:27.750Z,29.27
2023-02-03T10:34:02.079Z,28.20
2023-02-03T10:36:46.428Z,29.43
2023-02-03T10:39:22.414Z,35.43
2023-02-03T10:41:52.584Z,28.40
2023-02-03T10:44:21.559Z,29.17
2023-02-03T10:46:50.685Z,26.20
2023-02-03T10:49:19.748Z,25.27
2023-02-03T10:51:52.101Z,28.43
2023-02-03T10:54:32.780Z,27.73
2023-02-03T10:57:08.199Z,24.60
2023-02-03T10:59:41.208Z,24.50
2023-02-03T11:02:12.788Z,24.97
2023-02-03T11:04:41.638Z,114.27
2023-02-03T11:07:26.267Z,103.57
2023-02-03T11:09:54.994Z,102.67
2023-02-03T11:12:25.336Z,108.90
2023-02-03T11:14:55.660Z,123.93
2023-02-03T11:17:27.208Z,117.97
2023-02-03T11:20:00.183Z,126.97
2023-02-03T11:22:31.593Z,125.20
2023-02-03T11:25:01.112Z,126.57
2023-02-03T11:27:33.276Z,113.73
2023-02-03T11:30:30.959Z,103.37
2023-02-03T11:33:14.574Z,92.63
2023-02-03T11:35:59.698Z,88.93
2023-02-03T11:38:36.986Z,71.43
2023-02-03T11:41:05.806Z,117.87
2023-02-03T11:43:36.011Z,119.70
2023-02-03T11:46:08.522Z,127.30
2023-02-03T11:48:40.188Z,112.23
2023-02-03T11:51:23.023Z,137.83
2023-02-03T11:54:18.445Z,106.43
2023-02-03T11:57:09.737Z,98.37
2023-02-03T11:59:56.272Z,88.47
2023-02-03T12:03:02.371Z,78.40
2023-02-03T12:06:08.592Z,89.10
2023-02-03T12:08:53.333Z,99.57
2023-02-03T12:11:34.696Z,94.37
2023-02-03T12:14:36.855Z,104.37
2023-02-03T12:17:47.174Z,73.77
2023-02-03T12:20:41.129Z,38.90
2023-02-03T12:23:22.835Z,64.63
2023-02-03T12:26:05.532Z,85.77
2023-02-03T12:28:45.481Z,72.40
2023-02-03T12:31:24.775Z,68.20
2023-02-03T12:34:03.463Z,71.23
2023-02-03T12:36:37.731Z,94.70
2023-02-03T12:39:13.627Z,84.47
2023-02-03T12:41:50.355Z,56.23
2023-02-03T12:44:23.737Z,90.50
2023-02-03T12:46:59.199Z,94.60
2023-02-03T12:49:36.778Z,89.50
2023-02-03T12:52:12.314Z,68.40
2023-02-03T12:54:49.564Z,55.80
2023-02-03T12:57:25.564Z,75.67
2023-02-03T13:00:12.722Z,79.30
2023-02-03T13:02:49.999Z,48.20
2023-02-03T13:05:25.929Z,69.13
2023-02-03T13:08:01.048Z,55.13
2023-02-03T13:10:36.490Z,64.10
2023-02-03T13:13:09.535Z,66.37
2023-02-03T13:15:41.848Z,71.63
2023-02-03T13:18:20.568Z,60.07
2023-02-03T13:20:50.696Z,68.97
2023-02-03T13:23:19.344Z,58.30
2023-02-03T13:26:03.766Z,59.30
2023-02-03T13:28:47.670Z,53.00
2023-02-03T13:31:28.212Z,65.70
2023-02-03T13:34:13.532Z,53.10
2023-02-03T13:37:20.524Z,43.83
2023-02-03T13:40:11.721Z,58.40
2023-02-03T13:42:46.548Z,40.27
2023-02-03T13:45:24.149Z,26.97
2023-02-03T13:47:57.877Z,29.93
2023-02-03T13:50:28.980Z,29.03
2023-02-03T13:53:07.596Z,31.50
2023-02-03T13:55:41.376Z,33.60
2023-02-03T13:58:22.263Z,27.43
2023-02-03T14:01:04.020Z,34.10
2023-02-03T14:03:49.098Z,41.20
2023-02-03T14:07:00.894Z,28.57
2023-02-03T14:09:57.477Z,16.27
2023-02-03T14:12:59.874Z,41.43
2023-02-03T14:15:36.865Z,54.60
2023-02-03T14:18:33.677Z,28.93
2023-02-03T14:21:25.144Z,21.53
2023-02-03T14:24:00.957Z,19.33
2023-02-03T14:26:41.602Z,28.17
2023-02-03T14:29:13.609Z,33.03
2023-02-03T14:32:02.357Z,36.17
2023-02-03T14:34:37.238Z,26.70
2023-02-03T14:37:18.672Z,30.67
2023-02-03T14:40:11.413Z,27.60
2023-02-03T14:43:13.004Z,24.87
2023-02-03T14:46:18.602Z,31.10
2023-02-03T14:49:16.966Z,23.00
2023-02-03T14:52:01.734Z,25.43
2023-02-03T14:54:45.615Z,25.67
2023-02-03T14:57:27.873Z,27.57
2023-02-03T15:00:00.120Z,29.63
2023-02-03T15:02:31.351Z,29.63
2023-02-03T15:05:38.656Z,27.80
2023-02-03T15:08:40.905Z,26.97
2023-02-03T15:11:32.957Z,25.10
2023-02-03T15:14:22.784Z,21.97
2023-02-03T15:16:57.351Z,21.20
2023-02-03T15:19:33.802Z,20.53
2023-02-03T15:22:03.478Z,20.60
2023-02-03T15:24:41.260Z,20.03
2023-02-03T15:27:23.790Z,18.73
2023-02-03T15:29:53.231Z,19.10
2023-02-03T15:32:29.452Z,20.83
2023-02-03T15:35:00.322Z,17.90
2023-02-03T15:37:34.402Z,19.80
2023-02-03T15:40:10.376Z,31.80
2023-02-03T15:42:43.591Z,21.87
2023-02-03T15:45:23.243Z,24.73
2023-02-03T15:47:54.603Z,21.40
2023-02-03T15:50:32.006Z,20.43
2023-02-03T15:53:06.076Z,19.10
2023-02-03T15:55:40.680Z,20.83
2023-02-03T15:58:18.853Z,22.37
2023-02-03T16:00:50.444Z,21.87
2023-02-03T16:03:22.807Z,23.70
2023-02-03T16:05:52.575Z,25.30
2023-02-03T16:08:37.488Z,26.63
2023-02-03T16:11:30.690Z,26.03
2023-02-03T16:14:04.813Z,23.40
2023-02-03T16:16:38.756Z,20.20
2023-02-03T16:19:14.322Z,23.30
2023-02-03T16:21:55.335Z,23.63
2023-02-03T16:24:38.882Z,24.67
2023-02-03T16:27:35.115Z,23.73
2023-02-03T16:30:42.595Z,24.27
2023-02-03T16:33:35.940Z,23.57
2023-02-03T16:36:30.584Z,25.10
2023-02-03T16:39:20.500Z,26.07
2023-02-03T16:42:06.782Z,25.50
2023-02-03T16:44:54.179Z,26.47
2023-02-03T16:47:43.724Z,23.10
2023-02-03T16:50:38.753Z,23.30
2023-02-03T16:53:11.209Z,27.03
2023-02-03T16:55:40.258Z,25.20
2023-02-03T16:58:09.132Z,20.93
2023-02-03T17:00:42.017Z,23.47
2023-02-03T17:03:12.522Z,22.27
2023-02-03T17:05:42.267Z,27.20
2023-02-03T17:08:11.179Z,26.60
2023-02-03T17:10:41.384Z,30.07
2023-02-03T17:13:10.628Z,27.00
2023-02-03T17:15:43.622Z,22.43
2023-02-03T17:18:12.323Z,29.67
2023-02-03T17:20:41.961Z,31.63
2023-02-03T17:23:11.390Z,34.33
2023-02-03T17:25:40.702Z,28.60
2023-02-03T17:28:14.092Z,26.47
2023-02-03T17:30:44.361Z,31.90
2023-02-03T17:33:13.689Z,28.90
2023-02-03T17:35:43.552Z,28.90
2023-02-03T17:38:13.566Z,33.63
2023-02-03T17:54:41.141Z,36.30
2023-02-03T17:57:09.679Z,37.47
2023-02-03T17:59:38.304Z,41.73
2023-02-03T18:02:11.079Z,38.63
2023-02-03T18:04:40.126Z,47.57
2023-02-03T18:07:08.685Z,40.00
2023-02-03T18:09:37.294Z,37.50
2023-02-03T18:12:06.279Z,42.70
2023-02-03T18:14:34.899Z,41.93
2023-02-03T18:17:03.477Z,41.53
2023-02-03T18:19:34.203Z,38.53
2023-02-03T18:22:02.902Z,38.50
2023-02-03T18:24:32.031Z,41.30
2023-02-03T18:27:02.556Z,36.60
2023-02-03T18:29:31.098Z,39.60
2023-02-03T18:31:59.760Z,37.73
2023-02-03T18:34:28.326Z,34.73
2023-02-03T18:36:58.406Z,34.30
2023-02-03T18:39:26.932Z,36.67
2023-02-03T18:41:55.479Z,36.77
2023-02-03T18:44:25.804Z,33.40
2023-02-03T18:46:55.072Z,34.47
2023-02-03T18:49:23.963Z,32.97
2023-02-03T18:51:52.547Z,31.13
2023-02-03T18:54:22.530Z,32.67
2023-02-03T18:56:51.301Z,32.27
2023-02-03T18:59:20.031Z,30.27
2023-02-03T19:01:48.797Z,31.07
2023-02-03T19:04:17.440Z,29.83
2023-02-03T19:06:47.052Z,30.27
2023-02-03T19:09:18.206Z,28.63
2023-02-03T19:11:48.242Z,29.07
2023-02-03T19:14:19.035Z,29.27
2023-02-03T19:16:52.489Z,26.40
2023-02-03T19:19:21.818Z,28.53
2023-02-03T19:21:52.035Z,28.83
2023-02-03T19:24:21.140Z,28.73
2023-02-03T19:26:51.858Z,28.80
2023-02-03T19:29:21.308Z,31.07
2023-02-03T19:31:50.167Z,31.47
2023-02-03T19:34:34.436Z,30.83
2023-02-03T19:37:05.413Z,28.67
2023-02-03T19:39:34.484Z,32.30
2023-02-03T19:42:04.994Z,35.03
2023-02-03T19:44:33.730Z,36.53
2023-02-03T19:47:03.958Z,35.17
2023-02-03T19:49:32.512Z,34.47
2023-02-03T19:52:01.182Z,31.33
2023-02-03T19:54:29.766Z,32.90
2023-02-03T19:56:58.364Z,34.50
2023-02-03T19:59:28.417Z,35.13
2023-02-03T20:01:59.807Z,36.17
2023-02-03T20:04:34.135Z,35.80
2023-02-03T20:07:02.865Z,32.20
2023-02-03T20:09:31.574Z,34.33
2023-02-03T20:12:00.626Z,33.90
2023-02-03T20:14:32.813Z,36.93
2023-02-03T20:17:03.508Z,36.77
2023-02-03T20:19:32.320Z,37.10
2023-02-03T20:22:01.169Z,36.47
2023-02-03T20:24:29.885Z,36.50
2023-02-03T20:26:58.457Z,33.53
2023-02-03T20:29:27.252Z,36.03
2023-02-03T20:31:58.839Z,38.10
2023-02-03T20:34:28.697Z,36.67
2023-02-03T20:36:58.846Z,44.90
2023-02-03T20:39:28.623Z,36.10
2023-02-03T20:41:57.299Z,32.23
2023-02-03T20:44:26.209Z,27.97
2023-02-03T20:46:56.079Z,31.63
2023-02-03T20:49:26.221Z,32.70
2023-02-03T20:51:54.793Z,31.50
2023-02-03T20:54:24.299Z,31.70
2023-02-03T20:56:53.065Z,30.83
2023-02-03T20:59:22.194Z,31.87
2023-02-03T21:01:50.923Z,32.00
2023-02-03T21:04:38.391Z,33.77
2023-02-03T21:07:14.918Z,34.00
2023-02-03T21:09:43.586Z,30.03
2023-02-03T21:12:16.429Z,38.13
2023-02-03T21:14:49.192Z,38.60
2023-02-03T21:17:22.378Z,40.77
2023-02-03T21:19:51.867Z,51.10
2023-02-03T21:22:24.209Z,40.27
2023-02-03T21:24:54.984Z,27.13
2023-02-03T21:27:29.917Z,28.73
2023-02-03T21:29:59.669Z,26.83
2023-02-03T21:32:35.505Z,29.07
2023-02-03T21:35:04.106Z,31.33
2023-02-03T21:37:43.801Z,30.93
2023-02-03T21:40:27.961Z,27.00
2023-02-03T21:42:57.790Z,26.13
2023-02-03T21:45:31.225Z,29.10
2023-02-03T21:48:01.069Z,28.97
2023-02-03T21:50:35.314Z,28.63
2023-02-03T21:53:26.609Z,29.70
2023-02-03T21:55:55.523Z,27.57
2023-02-03T21:58:28.932Z,29.23
2023-02-03T22:00:58.061Z,36.33
2023-02-03T22:03:29.241Z,28.47
2023-02-03T22:06:10.935Z,28.30
2023-02-03T22:08:42.583Z,29.13
2023-02-03T22:11:11.743Z,25.33
2023-02-03T22:13:40.358Z,27.20
2023-02-03T22:16:09.684Z,23.73
2023-02-03T22:18:39.395Z,23.87
2023-02-03T22:21:08.019Z,24.67
2023-02-03T22:23:36.795Z,22.13
2023-02-03T22:26:07.617Z,24.03
2023-02-03T22:28:36.666Z,24.90
2023-02-03T22:31:07.746Z,22.97
2023-02-03T22:33:37.341Z,22.33
2023-02-03T22:36:07.774Z,22.67
2023-02-03T22:38:37.576Z,24.43
2023-02-03T22:41:09.174Z,24.57
2023-02-03T22:43:37.769Z,22.10
2023-02-03T22:46:07.380Z,22.80
2023-02-03T22:48:36.197Z,20.93
2023-02-03T22:51:05.268Z,21.33
2023-02-03T22:53:35.045Z,22.03
2023-02-03T22:56:04.063Z,22.77
2023-02-03T22:58:34.105Z,20.23
2023-02-03T23:01:02.777Z,20.63
2023-02-03T23:03:32.886Z,18.23
2023-02-03T23:06:01.844Z,17.90
2023-02-03T23:08:30.441Z,18.90
2023-02-03T23:10:59.103Z,21.20
2023-02-03T23:13:28.354Z,19.63
2023-02-03T23:15:59.219Z,20.37
2023-02-03T23:18:28.023Z,19.47
2023-02-03T23:20:56.811Z,19.37
2023-02-03T23:23:25.601Z,23.43
2023-02-03T23:25:54.147Z,22.30
2023-02-03T23:28:22.736Z,20.57
2023-02-03T23:30:51.512Z,23.17
2023-02-03T23:33:22.107Z,24.37
2023-02-03T23:35:50.884Z,21.30
2023-02-03T23:38:19.907Z,21.77
2023-02-03T23:40:49.171Z,30.43
2023-02-03T23:43:17.890Z,17.83
2023-02-03T23:45:46.578Z,22.33
2023-02-03T23:48:17.629Z,21.63
2023-02-03T23:50:49.321Z,18.50
2023-02-03T23:53:17.907Z,14.30
2023-02-03T23:55:46.423Z,18.43
2023-02-03T23:58:15.002Z,19.43
